sensor_id;sensor_type;location;lat;lon;timestamp;pressure;altitude;pressure_sealevel;temperature;humidity
13869;BME280;7004;48.206;16.402;2023-01-30T00:01:00;100284.97;;;1.58;71.44
13869;BME280;7004;48.206;16.402;2023-01-30T00:03:28;100282.44;;;1.53;71.97
13869;BME280;7004;48.206;16.402;2023-01-30T00:05:54;100285.59;;;1.22;72.79
13869;BME280;7004;48.206;16.402;2023-01-30T00:08:21;100275.91;;;1.29;73.25
13869;BME280;7004;48.206;16.402;2023-01-30T00:10:48;100277.66;;;1.78;71.75
13869;BME280;7004;48.206;16.402;2023-01-30T00:13:14;100263.69;;;1.34;72.11
13869;BME280;7004;48.206;16.402;2023-01-30T00:15:41;100268.34;;;1.66;71.24
13869;BME280;7004;48.206;16.402;2023-01-30T00:18:08;100259.13;;;1.47;71.66
13869;BME280;7004;48.206;16.402;2023-01-30T00:20:35;100263.59;;;1.40;71.95
13869;BME280;7004;48.206;16.402;2023-01-30T00:23:02;100267.00;;;1.42;73.01
13869;BME280;7004;48.206;16.402;2023-01-30T00:25:28;100257.97;;;1.12;72.41
13869;BME280;7004;48.206;16.402;2023-01-30T00:27:59;100267.50;;;0.54;71.51
13869;BME280;7004;48.206;16.402;2023-01-30T00:30:25;100255.00;;;0.17;71.52
13869;BME280;7004;48.206;16.402;2023-01-30T00:32:57;100248.59;;;0.41;70.35
13869;BME280;7004;48.206;16.402;2023-01-30T00:35:24;100257.59;;;0.19;70.04
13869;BME280;7004;48.206;16.402;2023-01-30T00:37:58;100238.34;;;0.34;74.00
13869;BME280;7004;48.206;16.402;2023-01-30T00:40:25;100236.91;;;0.73;75.01
13869;BME280;7004;48.206;16.402;2023-01-30T00:42:52;100227.84;;;0.96;72.97
13869;BME280;7004;48.206;16.402;2023-01-30T00:45:42;100222.75;;;0.91;74.16
13869;BME280;7004;48.206;16.402;2023-01-30T00:48:27;100218.88;;;0.59;71.10
13869;BME280;7004;48.206;16.402;2023-01-30T00:50:53;100220.03;;;0.38;71.60
13869;BME280;7004;48.206;16.402;2023-01-30T00:53:19;100221.59;;;-0.16;73.06
13869;BME280;7004;48.206;16.402;2023-01-30T00:55:46;100216.44;;;-0.19;72.83
13869;BME280;7004;48.206;16.402;2023-01-30T00:58:12;100210.63;;;-0.38;74.93
13869;BME280;7004;48.206;16.402;2023-01-30T01:00:38;100216.13;;;-0.69;73.36
13869;BME280;7004;48.206;16.402;2023-01-30T01:03:06;100213.72;;;-0.91;74.36
13869;BME280;7004;48.206;16.402;2023-01-30T01:05:32;100195.13;;;0.22;76.31
13869;BME280;7004;48.206;16.402;2023-01-30T01:07:58;100201.94;;;-0.36;72.08
13869;BME280;7004;48.206;16.402;2023-01-30T01:10:24;100187.25;;;0.28;76.65
13869;BME280;7004;48.206;16.402;2023-01-30T01:12:51;100179.09;;;-0.11;73.46
13869;BME280;7004;48.206;16.402;2023-01-30T01:15:18;100174.91;;;0.41;76.15
13869;BME280;7004;48.206;16.402;2023-01-30T01:17:44;100165.13;;;0.57;75.28
13869;BME280;7004;48.206;16.402;2023-01-30T01:20:11;100157.31;;;0.60;73.88
13869;BME280;7004;48.206;16.402;2023-01-30T01:22:38;100161.78;;;-0.12;71.92
13869;BME280;7004;48.206;16.402;2023-01-30T01:25:05;100171.91;;;-0.63;73.67
13869;BME280;7004;48.206;16.402;2023-01-30T01:27:31;100163.69;;;-1.10;73.90
13869;BME280;7004;48.206;16.402;2023-01-30T01:29:57;100165.56;;;-1.24;75.21
13869;BME280;7004;48.206;16.402;2023-01-30T01:32:23;100165.69;;;-1.39;75.10
13869;BME280;7004;48.206;16.402;2023-01-30T01:34:49;100169.88;;;-1.21;77.04
13869;BME280;7004;48.206;16.402;2023-01-30T01:37:16;100170.81;;;-1.32;77.15
13869;BME280;7004;48.206;16.402;2023-01-30T01:39:42;100166.38;;;-1.17;77.47
13869;BME280;7004;48.206;16.402;2023-01-30T01:42:33;100163.28;;;-1.65;79.04
13869;BME280;7004;48.206;16.402;2023-01-30T01:48:08;100151.97;;;-1.55;77.80
13869;BME280;7004;48.206;16.402;2023-01-30T01:50:48;100142.13;;;-1.15;79.16
13869;BME280;7004;48.206;16.402;2023-01-30T01:53:19;100137.91;;;-1.25;78.33
13869;BME280;7004;48.206;16.402;2023-01-30T01:55:49;100147.69;;;-1.59;77.56
13869;BME280;7004;48.206;16.402;2023-01-30T01:58:39;100135.72;;;-1.80;78.71
13869;BME280;7004;48.206;16.402;2023-01-30T02:01:07;100139.19;;;-1.81;79.02
13869;BME280;7004;48.206;16.402;2023-01-30T02:03:38;100129.56;;;-1.64;78.72
13869;BME280;7004;48.206;16.402;2023-01-30T02:06:08;100125.28;;;-1.68;78.55
13869;BME280;7004;48.206;16.402;2023-01-30T02:08:44;100119.19;;;-1.64;80.19
13869;BME280;7004;48.206;16.402;2023-01-30T02:11:44;100108.47;;;-1.22;78.33
13869;BME280;7004;48.206;16.402;2023-01-30T02:14:13;100100.06;;;-1.49;77.02
13869;BME280;7004;48.206;16.402;2023-01-30T02:16:42;100103.72;;;-1.74;79.33
13869;BME280;7004;48.206;16.402;2023-01-30T02:19:46;100080.03;;;-0.53;80.04
13869;BME280;7004;48.206;16.402;2023-01-30T02:28:45;100068.16;;;-0.72;75.13
13869;BME280;7004;48.206;16.402;2023-01-30T02:31:49;100069.44;;;-1.12;78.20
13869;BME280;7004;48.206;16.402;2023-01-30T02:40:24;100047.59;;;0.33;76.03
13869;BME280;7004;48.206;16.402;2023-01-30T02:43:26;100046.16;;;0.17;77.15
13869;BME280;7004;48.206;16.402;2023-01-30T02:46:52;100047.72;;;0.27;76.38
13869;BME280;7004;48.206;16.402;2023-01-30T02:49:44;100026.13;;;0.72;75.07
13869;BME280;7004;48.206;16.402;2023-01-30T02:52:13;100014.50;;;0.91;74.15
13869;BME280;7004;48.206;16.402;2023-01-30T02:54:41;100023.09;;;0.95;74.46
13869;BME280;7004;48.206;16.402;2023-01-30T02:57:22;100017.47;;;1.16;73.48
13869;BME280;7004;48.206;16.402;2023-01-30T02:59:56;100016.53;;;1.19;72.82
13869;BME280;7004;48.206;16.402;2023-01-30T03:05:58;100013.94;;;1.19;72.68
13869;BME280;7004;48.206;16.402;2023-01-30T03:08:58;99999.88;;;1.27;72.28
13869;BME280;7004;48.206;16.402;2023-01-30T03:11:55;100001.91;;;1.13;72.73
13869;BME280;7004;48.206;16.402;2023-01-30T03:14:31;99996.47;;;1.24;71.28
13869;BME280;7004;48.206;16.402;2023-01-30T03:17:00;100006.13;;;1.19;72.20
13869;BME280;7004;48.206;16.402;2023-01-30T03:19:29;99997.06;;;1.38;71.88
13869;BME280;7004;48.206;16.402;2023-01-30T03:21:56;100003.44;;;1.64;70.21
13869;BME280;7004;48.206;16.402;2023-01-30T03:24:22;99999.28;;;1.55;70.31
13869;BME280;7004;48.206;16.402;2023-01-30T03:27:06;99993.28;;;1.51;70.37
13869;BME280;7004;48.206;16.402;2023-01-30T03:29:33;99991.47;;;1.55;70.37
13869;BME280;7004;48.206;16.402;2023-01-30T03:31:59;99993.47;;;1.42;71.23
13869;BME280;7004;48.206;16.402;2023-01-30T03:34:25;99989.41;;;1.29;72.45
13869;BME280;7004;48.206;16.402;2023-01-30T03:36:52;99994.13;;;1.53;70.33
13869;BME280;7004;48.206;16.402;2023-01-30T03:39:18;99987.31;;;1.46;70.42
13869;BME280;7004;48.206;16.402;2023-01-30T03:41:45;99977.59;;;1.53;69.61
13869;BME280;7004;48.206;16.402;2023-01-30T03:44:11;99980.34;;;1.47;70.56
13869;BME280;7004;48.206;16.402;2023-01-30T03:46:37;99963.97;;;1.42;70.63
13869;BME280;7004;48.206;16.402;2023-01-30T03:49:04;99971.66;;;1.48;70.31
13869;BME280;7004;48.206;16.402;2023-01-30T03:51:30;99982.88;;;1.51;69.99
13869;BME280;7004;48.206;16.402;2023-01-30T03:53:56;99974.81;;;1.61;69.46
13869;BME280;7004;48.206;16.402;2023-01-30T03:56:22;99980.84;;;0.35;69.27
13869;BME280;7004;48.206;16.402;2023-01-30T03:58:48;99971.19;;;0.89;70.53
13869;BME280;7004;48.206;16.402;2023-01-30T04:01:14;99957.22;;;-0.02;70.87
13869;BME280;7004;48.206;16.402;2023-01-30T04:03:41;99965.50;;;-0.33;75.22
13869;BME280;7004;48.206;16.402;2023-01-30T04:06:07;99971.06;;;-0.60;71.96
13869;BME280;7004;48.206;16.402;2023-01-30T04:08:33;99974.06;;;-0.90;71.20
13869;BME280;7004;48.206;16.402;2023-01-30T04:11:00;99975.28;;;-1.18;73.37
13869;BME280;7004;48.206;16.402;2023-01-30T04:13:26;99965.44;;;-1.66;73.65
13869;BME280;7004;48.206;16.402;2023-01-30T04:15:52;99963.75;;;-1.73;75.54
13869;BME280;7004;48.206;16.402;2023-01-30T04:18:18;99953.41;;;-0.97;74.54
13869;BME280;7004;48.206;16.402;2023-01-30T04:20:44;99940.38;;;-0.93;73.78
13869;BME280;7004;48.206;16.402;2023-01-30T04:23:11;99939.91;;;-0.59;75.96
13869;BME280;7004;48.206;16.402;2023-01-30T04:25:37;99929.03;;;0.25;73.81
13869;BME280;7004;48.206;16.402;2023-01-30T04:28:04;99935.84;;;-0.19;74.63
13869;BME280;7004;48.206;16.402;2023-01-30T04:30:30;99917.91;;;0.61;72.95
13869;BME280;7004;48.206;16.402;2023-01-30T04:32:56;99924.47;;;0.36;73.18
13869;BME280;7004;48.206;16.402;2023-01-30T04:35:22;99919.28;;;0.81;72.48
13869;BME280;7004;48.206;16.402;2023-01-30T04:37:48;99922.13;;;1.11;71.99
13869;BME280;7004;48.206;16.402;2023-01-30T04:40:14;99923.78;;;1.15;72.44
13869;BME280;7004;48.206;16.402;2023-01-30T04:42:40;99921.84;;;1.23;71.23
13869;BME280;7004;48.206;16.402;2023-01-30T04:45:07;99918.16;;;1.33;71.32
13869;BME280;7004;48.206;16.402;2023-01-30T04:47:34;99921.22;;;1.50;70.49
13869;BME280;7004;48.206;16.402;2023-01-30T04:50:00;99925.50;;;1.53;70.27
13869;BME280;7004;48.206;16.402;2023-01-30T04:52:26;99926.81;;;1.34;70.76
13869;BME280;7004;48.206;16.402;2023-01-30T04:54:52;99921.41;;;1.43;70.13
13869;BME280;7004;48.206;16.402;2023-01-30T04:57:18;99916.38;;;1.71;69.11
13869;BME280;7004;48.206;16.402;2023-01-30T04:59:44;99912.66;;;1.81;69.30
13869;BME280;7004;48.206;16.402;2023-01-30T05:02:10;99913.91;;;1.66;69.73
13869;BME280;7004;48.206;16.402;2023-01-30T05:04:37;99904.47;;;1.61;69.54
13869;BME280;7004;48.206;16.402;2023-01-30T05:07:03;99917.38;;;2.03;68.48
13869;BME280;7004;48.206;16.402;2023-01-30T05:09:29;99895.16;;;1.86;68.16
13869;BME280;7004;48.206;16.402;2023-01-30T05:11:55;99895.41;;;1.77;68.33
13869;BME280;7004;48.206;16.402;2023-01-30T05:14:21;99895.03;;;1.57;69.19
13869;BME280;7004;48.206;16.402;2023-01-30T05:16:47;99894.19;;;1.55;69.19
13869;BME280;7004;48.206;16.402;2023-01-30T05:19:14;99885.63;;;1.87;68.08
13869;BME280;7004;48.206;16.402;2023-01-30T05:21:40;99879.88;;;2.07;68.22
13869;BME280;7004;48.206;16.402;2023-01-30T05:24:07;99883.94;;;1.84;68.87
13869;BME280;7004;48.206;16.402;2023-01-30T05:26:33;99881.09;;;1.93;68.78
13869;BME280;7004;48.206;16.402;2023-01-30T05:28:59;99870.69;;;1.92;69.03
13869;BME280;7004;48.206;16.402;2023-01-30T05:31:26;99869.44;;;1.72;68.23
13869;BME280;7004;48.206;16.402;2023-01-30T05:33:52;99863.75;;;1.92;66.84
13869;BME280;7004;48.206;16.402;2023-01-30T05:36:21;99868.16;;;1.89;67.53
13869;BME280;7004;48.206;16.402;2023-01-30T05:38:48;99873.16;;;1.64;68.67
13869;BME280;7004;48.206;16.402;2023-01-30T05:41:15;99861.88;;;1.98;68.03
13869;BME280;7004;48.206;16.402;2023-01-30T05:43:42;99863.78;;;1.91;67.41
13869;BME280;7004;48.206;16.402;2023-01-30T05:46:11;99866.81;;;1.74;69.03
13869;BME280;7004;48.206;16.402;2023-01-30T05:48:38;99860.88;;;1.69;67.97
13869;BME280;7004;48.206;16.402;2023-01-30T05:51:04;99866.25;;;1.95;67.25
13869;BME280;7004;48.206;16.402;2023-01-30T05:53:32;99865.00;;;1.76;67.89
13869;BME280;7004;48.206;16.402;2023-01-30T05:56:04;99880.19;;;2.27;66.43
13869;BME280;7004;48.206;16.402;2023-01-30T05:58:31;99891.22;;;2.04;67.58
13869;BME280;7004;48.206;16.402;2023-01-30T06:01:04;99902.47;;;1.72;67.86
13869;BME280;7004;48.206;16.402;2023-01-30T06:03:33;99856.50;;;2.02;67.38
13869;BME280;7004;48.206;16.402;2023-01-30T06:06:02;99857.06;;;1.82;68.30
13869;BME280;7004;48.206;16.402;2023-01-30T06:08:29;99841.81;;;2.31;65.47
13869;BME280;7004;48.206;16.402;2023-01-30T06:11:04;99840.72;;;2.08;66.51
13869;BME280;7004;48.206;16.402;2023-01-30T06:13:31;99852.75;;;2.12;66.85
13869;BME280;7004;48.206;16.402;2023-01-30T06:15:57;99861.84;;;2.30;65.64
13869;BME280;7004;48.206;16.402;2023-01-30T06:18:23;99880.84;;;2.03;66.94
13869;BME280;7004;48.206;16.402;2023-01-30T06:20:51;99876.38;;;2.08;66.28
13869;BME280;7004;48.206;16.402;2023-01-30T06:23:19;99873.72;;;2.09;66.21
13869;BME280;7004;48.206;16.402;2023-01-30T06:25:47;99880.31;;;2.23;66.19
13869;BME280;7004;48.206;16.402;2023-01-30T06:28:15;99876.22;;;1.80;66.81
13869;BME280;7004;48.206;16.402;2023-01-30T06:30:42;99860.78;;;1.72;67.01
13869;BME280;7004;48.206;16.402;2023-01-30T06:33:10;99838.03;;;2.11;65.46
13869;BME280;7004;48.206;16.402;2023-01-30T06:35:37;99842.47;;;2.08;66.17
13869;BME280;7004;48.206;16.402;2023-01-30T06:38:04;99840.50;;;1.83;66.96
13869;BME280;7004;48.206;16.402;2023-01-30T06:40:31;99828.28;;;1.85;66.42
13869;BME280;7004;48.206;16.402;2023-01-30T06:42:58;99830.22;;;2.10;65.94
13869;BME280;7004;48.206;16.402;2023-01-30T06:45:24;99813.66;;;2.12;65.27
13869;BME280;7004;48.206;16.402;2023-01-30T06:47:53;99818.13;;;2.07;66.15
13869;BME280;7004;48.206;16.402;2023-01-30T06:50:22;99809.03;;;2.22;65.69
13869;BME280;7004;48.206;16.402;2023-01-30T06:52:50;99821.84;;;1.99;66.88
13869;BME280;7004;48.206;16.402;2023-01-30T06:55:20;99810.50;;;2.00;65.30
13869;BME280;7004;48.206;16.402;2023-01-30T06:57:47;99811.84;;;1.83;65.52
13869;BME280;7004;48.206;16.402;2023-01-30T07:00:19;99820.91;;;2.01;65.56
13869;BME280;7004;48.206;16.402;2023-01-30T07:02:46;99822.19;;;2.49;63.08
13869;BME280;7004;48.206;16.402;2023-01-30T07:05:12;99810.97;;;2.47;62.42
13869;BME280;7004;48.206;16.402;2023-01-30T07:07:38;99814.94;;;2.60;63.56
13869;BME280;7004;48.206;16.402;2023-01-30T07:10:07;99816.88;;;2.81;62.12
13869;BME280;7004;48.206;16.402;2023-01-30T07:12:34;99795.38;;;2.44;62.14
13869;BME280;7004;48.206;16.402;2023-01-30T07:15:01;99799.75;;;2.43;61.87
13869;BME280;7004;48.206;16.402;2023-01-30T07:17:27;99811.19;;;2.69;61.91
13869;BME280;7004;48.206;16.402;2023-01-30T07:19:53;99816.09;;;3.08;60.60
13869;BME280;7004;48.206;16.402;2023-01-30T07:22:19;99819.31;;;2.59;61.82
13869;BME280;7004;48.206;16.402;2023-01-30T07:24:45;99822.31;;;2.75;60.31
13869;BME280;7004;48.206;16.402;2023-01-30T07:27:12;99822.22;;;3.06;59.57
13869;BME280;7004;48.206;16.402;2023-01-30T07:29:39;99829.69;;;2.91;59.93
13869;BME280;7004;48.206;16.402;2023-01-30T07:32:07;99830.91;;;3.07;60.22
13869;BME280;7004;48.206;16.402;2023-01-30T07:34:38;99844.31;;;2.96;59.79
13869;BME280;7004;48.206;16.402;2023-01-30T07:37:04;99836.84;;;2.84;59.60
13869;BME280;7004;48.206;16.402;2023-01-30T07:39:30;99859.78;;;3.02;59.41
13869;BME280;7004;48.206;16.402;2023-01-30T07:42:00;99863.22;;;3.03;59.04
13869;BME280;7004;48.206;16.402;2023-01-30T07:44:26;99860.53;;;3.06;58.58
13869;BME280;7004;48.206;16.402;2023-01-30T07:46:52;99858.22;;;3.25;58.32
13869;BME280;7004;48.206;16.402;2023-01-30T07:49:18;99860.91;;;2.94;59.05
13869;BME280;7004;48.206;16.402;2023-01-30T07:51:45;99863.00;;;3.11;59.11
13869;BME280;7004;48.206;16.402;2023-01-30T07:54:11;99849.03;;;2.83;59.40
13869;BME280;7004;48.206;16.402;2023-01-30T07:56:38;99828.09;;;3.13;58.66
13869;BME280;7004;48.206;16.402;2023-01-30T07:59:04;99823.47;;;2.65;59.69
13869;BME280;7004;48.206;16.402;2023-01-30T08:01:31;99838.41;;;3.18;58.23
13869;BME280;7004;48.206;16.402;2023-01-30T08:03:57;99825.31;;;2.91;57.85
13869;BME280;7004;48.206;16.402;2023-01-30T08:06:24;99823.72;;;3.14;58.77
13869;BME280;7004;48.206;16.402;2023-01-30T08:08:50;99826.19;;;2.90;59.80
13869;BME280;7004;48.206;16.402;2023-01-30T08:11:16;99815.50;;;3.26;58.41
13869;BME280;7004;48.206;16.402;2023-01-30T08:13:43;99811.13;;;3.26;58.10
13869;BME280;7004;48.206;16.402;2023-01-30T08:16:09;99823.56;;;3.20;58.30
13869;BME280;7004;48.206;16.402;2023-01-30T08:18:35;99811.53;;;3.14;58.36
13869;BME280;7004;48.206;16.402;2023-01-30T08:21:05;99803.13;;;3.58;56.45
13869;BME280;7004;48.206;16.402;2023-01-30T08:23:34;99808.41;;;3.83;57.18
13869;BME280;7004;48.206;16.402;2023-01-30T08:26:03;99810.69;;;3.67;57.23
13869;BME280;7004;48.206;16.402;2023-01-30T08:28:30;99822.38;;;3.55;57.53
13869;BME280;7004;48.206;16.402;2023-01-30T08:30:56;99787.25;;;3.37;56.97
13869;BME280;7004;48.206;16.402;2023-01-30T08:33:24;99772.34;;;3.41;56.70
13869;BME280;7004;48.206;16.402;2023-01-30T08:35:50;99769.47;;;4.24;55.33
13869;BME280;7004;48.206;16.402;2023-01-30T08:38:17;99740.31;;;4.33;54.11
13869;BME280;7004;48.206;16.402;2023-01-30T08:40:43;99742.63;;;4.64;53.81
13869;BME280;7004;48.206;16.402;2023-01-30T08:43:10;99746.41;;;4.79;52.49
13869;BME280;7004;48.206;16.402;2023-01-30T08:45:36;99723.31;;;4.45;51.86
13869;BME280;7004;48.206;16.402;2023-01-30T08:48:05;99737.53;;;4.37;51.38
13869;BME280;7004;48.206;16.402;2023-01-30T08:50:32;99728.97;;;4.56;52.16
13869;BME280;7004;48.206;16.402;2023-01-30T08:53:07;99747.75;;;4.20;51.45
13869;BME280;7004;48.206;16.402;2023-01-30T08:55:34;99722.97;;;4.30;50.67
13869;BME280;7004;48.206;16.402;2023-01-30T08:58:00;99716.31;;;4.22;50.64
13869;BME280;7004;48.206;16.402;2023-01-30T09:00:27;99707.72;;;4.42;51.03
13869;BME280;7004;48.206;16.402;2023-01-30T09:02:55;99690.50;;;4.80;49.89
13869;BME280;7004;48.206;16.402;2023-01-30T09:05:23;99726.38;;;4.78;49.50
13869;BME280;7004;48.206;16.402;2023-01-30T09:07:50;99709.72;;;4.11;52.10
13869;BME280;7004;48.206;16.402;2023-01-30T09:10:16;99702.44;;;4.20;52.42
13869;BME280;7004;48.206;16.402;2023-01-30T09:12:42;99703.78;;;4.08;52.91
13869;BME280;7004;48.206;16.402;2023-01-30T09:15:09;99679.81;;;4.19;52.35
13869;BME280;7004;48.206;16.402;2023-01-30T09:17:36;99677.69;;;3.81;52.85
13869;BME280;7004;48.206;16.402;2023-01-30T09:20:06;99684.94;;;3.98;53.33
13869;BME280;7004;48.206;16.402;2023-01-30T09:22:32;99696.91;;;3.80;53.68
13869;BME280;7004;48.206;16.402;2023-01-30T09:24:59;99698.00;;;4.22;53.01
13869;BME280;7004;48.206;16.402;2023-01-30T09:27:25;99687.78;;;3.92;52.93
13869;BME280;7004;48.206;16.402;2023-01-30T09:29:51;99678.56;;;4.05;53.21
13869;BME280;7004;48.206;16.402;2023-01-30T09:32:17;99694.53;;;4.21;52.76
13869;BME280;7004;48.206;16.402;2023-01-30T09:34:44;99680.63;;;3.97;53.36
13869;BME280;7004;48.206;16.402;2023-01-30T09:37:10;99671.31;;;4.35;52.06
13869;BME280;7004;48.206;16.402;2023-01-30T09:39:36;99662.00;;;4.28;52.71
13869;BME280;7004;48.206;16.402;2023-01-30T09:51:05;99607.94;;;4.05;51.30
13869;BME280;7004;48.206;16.402;2023-01-30T09:57:21;99599.75;;;4.36;51.51
13869;BME280;7004;48.206;16.402;2023-01-30T09:59:50;99579.69;;;4.57;50.81
13869;BME280;7004;48.206;16.402;2023-01-30T10:02:58;99579.78;;;4.76;50.65
13869;BME280;7004;48.206;16.402;2023-01-30T10:05:42;99558.31;;;4.89;50.60
13869;BME280;7004;48.206;16.402;2023-01-30T10:14:11;99547.06;;;4.87;52.09
13869;BME280;7004;48.206;16.402;2023-01-30T10:20:49;99546.19;;;5.27;51.75
13869;BME280;7004;48.206;16.402;2023-01-30T10:26:22;99525.50;;;5.40;52.13
13869;BME280;7004;48.206;16.402;2023-01-30T10:29:22;99497.91;;;5.12;53.66
13869;BME280;7004;48.206;16.402;2023-01-30T10:31:57;99523.66;;;5.02;53.53
13869;BME280;7004;48.206;16.402;2023-01-30T10:34:39;99498.13;;;5.26;53.35
13869;BME280;7004;48.206;16.402;2023-01-30T10:37:33;99487.06;;;5.01;53.90
13869;BME280;7004;48.206;16.402;2023-01-30T10:43:40;99497.06;;;5.12;54.08
13869;BME280;7004;48.206;16.402;2023-01-30T10:49:57;99471.84;;;5.09;53.81
13869;BME280;7004;48.206;16.402;2023-01-30T10:52:33;99467.94;;;4.59;55.06
13869;BME280;7004;48.206;16.402;2023-01-30T11:01:00;99472.28;;;4.79;53.39
13869;BME280;7004;48.206;16.402;2023-01-30T11:03:49;99477.16;;;5.08;52.58
13869;BME280;7004;48.206;16.402;2023-01-30T11:06:23;99468.34;;;4.90;52.73
13869;BME280;7004;48.206;16.402;2023-01-30T11:08:51;99463.03;;;6.22;50.63
13869;BME280;7004;48.206;16.402;2023-01-30T11:14:05;99449.69;;;6.44;48.63
13869;BME280;7004;48.206;16.402;2023-01-30T11:17:13;99451.69;;;6.90;46.88
13869;BME280;7004;48.206;16.402;2023-01-30T11:19:33;99433.59;;;7.01;47.13
13869;BME280;7004;48.206;16.402;2023-01-30T11:22:04;99426.41;;;7.84;44.96
13869;BME280;7004;48.206;16.402;2023-01-30T11:24:38;99425.38;;;6.74;45.69
13869;BME280;7004;48.206;16.402;2023-01-30T11:27:28;99412.19;;;7.40;45.25
13869;BME280;7004;48.206;16.402;2023-01-30T11:30:17;99415.00;;;6.55;45.17
13869;BME280;7004;48.206;16.402;2023-01-30T11:32:47;99402.97;;;6.33;45.14
13869;BME280;7004;48.206;16.402;2023-01-30T11:37:42;99381.56;;;5.72;46.76
13869;BME280;7004;48.206;16.402;2023-01-30T11:40:21;99369.75;;;6.50;45.25
13869;BME280;7004;48.206;16.402;2023-01-30T11:43:12;99364.34;;;6.53;45.23
13869;BME280;7004;48.206;16.402;2023-01-30T11:45:46;99354.59;;;7.04;45.32
13869;BME280;7004;48.206;16.402;2023-01-30T11:48:19;99334.16;;;7.09;44.35
13869;BME280;7004;48.206;16.402;2023-01-30T11:50:49;99351.44;;;6.97;43.43
13869;BME280;7004;48.206;16.402;2023-01-30T11:56:53;99333.06;;;7.29;43.17
13869;BME280;7004;48.206;16.402;2023-01-30T11:59:55;99310.09;;;7.63;43.83
13869;BME280;7004;48.206;16.402;2023-01-30T12:05:35;99318.50;;;8.28;42.68
13869;BME280;7004;48.206;16.402;2023-01-30T12:08:21;99300.16;;;9.53;43.00
13869;BME280;7004;48.206;16.402;2023-01-30T12:10:57;99297.78;;;9.08;40.50
13869;BME280;7004;48.206;16.402;2023-01-30T12:13:41;99316.59;;;9.83;42.66
13869;BME280;7004;48.206;16.402;2023-01-30T12:19:53;99290.81;;;8.51;44.12
13869;BME280;7004;48.206;16.402;2023-01-30T12:25:26;99314.66;;;8.20;43.30
13869;BME280;7004;48.206;16.402;2023-01-30T12:30:50;99308.91;;;7.07;45.67
13869;BME280;7004;48.206;16.402;2023-01-30T12:33:20;99313.72;;;6.83;49.23
13869;BME280;7004;48.206;16.402;2023-01-30T12:36:34;99319.91;;;7.13;46.95
13869;BME280;7004;48.206;16.402;2023-01-30T12:45:21;99322.94;;;6.41;49.63
13869;BME280;7004;48.206;16.402;2023-01-30T12:48:11;99334.13;;;5.94;51.60
13869;BME280;7004;48.206;16.402;2023-01-30T12:55:07;99347.00;;;5.63;52.31
13869;BME280;7004;48.206;16.402;2023-01-30T13:06:46;99345.28;;;5.80;56.73
13869;BME280;7004;48.206;16.402;2023-01-30T13:13:05;99345.47;;;5.40;58.55
13869;BME280;7004;48.206;16.402;2023-01-30T13:18:56;99370.59;;;5.27;61.82
13869;BME280;7004;48.206;16.402;2023-01-30T13:21:35;99359.09;;;5.11;63.42
13869;BME280;7004;48.206;16.402;2023-01-30T13:24:24;99361.25;;;5.21;64.82
13869;BME280;7004;48.206;16.402;2023-01-30T13:26:57;99381.41;;;4.81;66.57
13869;BME280;7004;48.206;16.402;2023-01-30T13:29:34;99362.72;;;4.89;67.98
13869;BME280;7004;48.206;16.402;2023-01-30T13:32:14;99376.91;;;4.85;69.40
13869;BME280;7004;48.206;16.402;2023-01-30T13:34:44;99360.09;;;4.70;71.82
13869;BME280;7004;48.206;16.402;2023-01-30T13:37:18;99364.84;;;4.62;73.44
13869;BME280;7004;48.206;16.402;2023-01-30T13:40:03;99356.44;;;4.35;74.78
13869;BME280;7004;48.206;16.402;2023-01-30T13:42:43;99341.53;;;4.56;75.56
13869;BME280;7004;48.206;16.402;2023-01-30T13:45:21;99358.78;;;4.41;76.57
13869;BME280;7004;48.206;16.402;2023-01-30T13:53:36;99354.47;;;4.40;80.30
13869;BME280;7004;48.206;16.402;2023-01-30T14:12:46;99325.44;;;4.26;84.37
13869;BME280;7004;48.206;16.402;2023-01-30T14:18:03;99314.16;;;4.05;84.19
13869;BME280;7004;48.206;16.402;2023-01-30T14:20:46;99308.88;;;4.25;84.86
13869;BME280;7004;48.206;16.402;2023-01-30T14:23:32;99294.91;;;4.45;83.39
13869;BME280;7004;48.206;16.402;2023-01-30T14:25:59;99289.97;;;4.96;81.30
13869;BME280;7004;48.206;16.402;2023-01-30T14:31:02;99290.94;;;4.74;79.70
13869;BME280;7004;48.206;16.402;2023-01-30T14:38:30;99280.19;;;4.43;77.27
13869;BME280;7004;48.206;16.402;2023-01-30T14:43:52;99302.56;;;4.69;75.78
13869;BME280;7004;48.206;16.402;2023-01-30T14:48:52;99300.94;;;4.85;74.06
13869;BME280;7004;48.206;16.402;2023-01-30T14:56:54;99329.53;;;5.09;73.98
13869;BME280;7004;48.206;16.402;2023-01-30T15:05:39;99335.69;;;4.89;73.68
13869;BME280;7004;48.206;16.402;2023-01-30T15:08:17;99346.66;;;4.97;72.68
13869;BME280;7004;48.206;16.402;2023-01-30T15:11:22;99338.16;;;5.11;71.93
13869;BME280;7004;48.206;16.402;2023-01-30T15:14:31;99347.31;;;4.83;73.19
13869;BME280;7004;48.206;16.402;2023-01-30T15:17:29;99337.66;;;5.21;70.75
13869;BME280;7004;48.206;16.402;2023-01-30T15:20:29;99335.88;;;5.03;72.08
13869;BME280;7004;48.206;16.402;2023-01-30T15:23:39;99333.56;;;4.97;73.06
13869;BME280;7004;48.206;16.402;2023-01-30T15:26:27;99332.84;;;5.12;72.07
13869;BME280;7004;48.206;16.402;2023-01-30T15:29:07;99332.19;;;4.69;73.89
13869;BME280;7004;48.206;16.402;2023-01-30T15:31:36;99340.59;;;4.77;74.01
13869;BME280;7004;48.206;16.402;2023-01-30T15:34:03;99340.84;;;4.71;73.86
13869;BME280;7004;48.206;16.402;2023-01-30T15:36:33;99338.00;;;4.57;74.49
13869;BME280;7004;48.206;16.402;2023-01-30T15:41:39;99349.63;;;4.70;74.39
13869;BME280;7004;48.206;16.402;2023-01-30T15:44:56;99328.75;;;4.69;74.45
13869;BME280;7004;48.206;16.402;2023-01-30T15:50:35;99360.31;;;4.85;74.96
13869;BME280;7004;48.206;16.402;2023-01-30T15:53:02;99360.59;;;4.59;75.27
13869;BME280;7004;48.206;16.402;2023-01-30T15:55:32;99366.72;;;4.58;74.97
13869;BME280;7004;48.206;16.402;2023-01-30T15:58:04;99385.81;;;4.81;74.17
13869;BME280;7004;48.206;16.402;2023-01-30T16:00:36;99387.28;;;4.68;74.26
13869;BME280;7004;48.206;16.402;2023-01-30T16:03:12;99399.34;;;4.91;73.88
13869;BME280;7004;48.206;16.402;2023-01-30T16:05:49;99417.72;;;4.89;73.88
13869;BME280;7004;48.206;16.402;2023-01-30T16:08:28;99401.81;;;4.75;75.29
13869;BME280;7004;48.206;16.402;2023-01-30T16:10:55;99410.00;;;4.67;74.96
13869;BME280;7004;48.206;16.402;2023-01-30T16:13:22;99427.22;;;4.92;73.89